Time;durP1;ratioP1;P1;durP2;ratioP2;P2;SDS_P1;SDS_P2;PMS_P1;PMS_P2;Temp;Humidity;BMP_temperature;BMP_pressure;BME280_temperature;BME280_humidity;BME280_pressure;Samples;Min_cycle;Max_cycle;Signal;HPM_P1;HPM_P2
2023/09/20 00:01:46;;;;;;;9.30;1.57;;;17.90;99.90;;;;;;6184171;23;21107;-92
2023/09/20 00:04:12;;;;;;;4.73;0.83;;;18.00;99.90;;;;;;6185890;23;20217;-94
2023/09/20 00:06:38;;;;;;;6.43;1.60;;;18.00;99.90;;;;;;6163200;23;20643;-93
2023/09/20 00:09:05;;;;;;;3.43;1.20;;;18.00;99.90;;;;;;6187349;23;20229;-93
2023/09/20 00:11:30;;;;;;;4.33;1.30;;;18.10;99.90;;;;;;6187194;23;20182;-94
2023/09/20 00:13:58;;;;;;;7.03;1.20;;;18.10;99.90;;;;;;6183017;23;20173;-92
2023/09/20 00:16:24;;;;;;;2.93;1.17;;;18.10;99.90;;;;;;6160238;23;20499;-91
2023/09/20 00:18:50;;;;;;;15.43;4.10;;;18.20;99.90;;;;;;6185831;23;20190;-91
2023/09/20 00:21:16;;;;;;;9.33;1.87;;;18.20;99.90;;;;;;6163058;23;20202;-92
2023/09/20 00:23:42;;;;;;;9.63;2.20;;;18.20;99.90;;;;;;6187171;23;20256;-91
2023/09/20 00:26:08;;;;;;;3.80;1.13;;;18.20;99.90;;;;;;6187595;23;20158;-91
2023/09/20 00:28:35;;;;;;;6.63;2.30;;;18.20;99.90;;;;;;6213082;23;20182;-92
2023/09/20 00:31:03;;;;;;;6.37;1.10;;;18.30;99.90;;;;;;6162976;23;20193;-90
2023/09/20 00:33:29;;;;;;;3.27;1.07;;;18.30;99.90;;;;;;6187545;23;20217;-91
2023/09/20 00:35:55;;;;;;;8.83;1.83;;;18.30;99.90;;;;;;6212207;23;20200;-93
2023/09/20 00:38:21;;;;;;;4.97;1.30;;;18.30;99.90;;;;;;6159420;23;20706;-91
2023/09/20 00:40:49;;;;;;;6.07;1.43;;;18.30;99.90;;;;;;6159177;23;20245;-91
2023/09/20 00:43:23;;;;;;;5.53;1.53;;;18.40;99.90;;;;;;6159501;23;20774;-92
2023/09/20 00:45:49;;;;;;;5.40;1.60;;;18.40;99.90;;;;;;6185621;23;20586;-92
2023/09/20 00:48:15;;;;;;;3.20;1.03;;;18.30;99.90;;;;;;6212463;23;20198;-92
2023/09/20 00:50:42;;;;;;;2.80;1.40;;;18.30;99.90;;;;;;6212052;23;20194;-94
2023/09/20 00:53:11;;;;;;;2.67;1.03;;;18.30;99.90;;;;;;6188094;23;20277;-91
2023/09/20 00:55:38;;;;;;;6.40;1.60;;;18.30;99.90;;;;;;6188640;23;20186;-91
2023/09/20 00:58:07;;;;;;;5.97;1.93;;;18.30;99.90;;;;;;6209938;23;20699;-91
2023/09/20 01:00:40;;;;;;;3.50;1.93;;;18.30;99.90;;;;;;6183947;23;20773;-92
2023/09/20 01:03:06;;;;;;;2.47;1.07;;;18.20;99.90;;;;;;6208879;23;20199;-92
2023/09/20 01:05:39;;;;;;;5.13;1.33;;;18.20;99.90;;;;;;6210298;23;20198;-92
2023/09/20 01:08:06;;;;;;;5.67;1.33;;;18.20;99.90;;;;;;6212664;23;20143;-91
2023/09/20 01:10:38;;;;;;;5.20;1.33;;;18.20;99.90;;;;;;6188316;23;20190;-93
2023/09/20 01:13:06;;;;;;;1.83;1.10;;;18.20;99.90;;;;;;6164988;23;20198;-91
2023/09/20 01:15:34;;;;;;;4.90;1.33;;;18.20;99.90;;;;;;6209962;23;20194;-92
2023/09/20 01:18:01;;;;;;;1.47;1.37;;;18.20;99.90;;;;;;6209395;23;20198;-92
2023/09/20 01:20:28;;;;;;;5.73;1.73;;;18.20;99.90;;;;;;6214368;23;20190;-92
2023/09/20 01:22:56;;;;;;;6.63;1.00;;;18.20;99.90;;;;;;6189889;23;20177;-91
2023/09/20 01:25:27;;;;;;;4.73;2.10;;;18.20;99.90;;;;;;6189772;23;20182;-91
2023/09/20 01:27:57;;;;;;;3.87;1.47;;;18.20;99.90;;;;;;6214093;23;20529;-93
2023/09/20 01:30:28;;;;;;;3.30;1.63;;;18.20;99.90;;;;;;6214208;23;20716;-91
2023/09/20 01:32:55;;;;;;;9.30;1.90;;;18.10;99.90;;;;;;6214095;23;20277;-90
2023/09/20 01:35:24;;;;;;;3.63;1.90;;;18.10;99.90;;;;;;6164481;23;20192;-91
2023/09/20 01:37:51;;;;;;;4.40;1.73;;;18.00;99.90;;;;;;6214184;23;20165;-91
2023/09/20 01:40:18;;;;;;;6.83;2.70;;;18.00;99.90;;;;;;6188875;23;20328;-90
2023/09/20 01:42:48;;;;;;;2.17;1.20;;;18.00;99.90;;;;;;6188772;23;20212;-91
2023/09/20 01:45:16;;;;;;;3.63;1.40;;;17.90;99.90;;;;;;6188600;23;20193;-90
2023/09/20 01:47:44;;;;;;;4.40;1.17;;;17.80;99.90;;;;;;6189135;23;20267;-91
2023/09/20 01:50:11;;;;;;;5.70;1.03;;;17.80;99.90;;;;;;6213760;23;20185;-91
2023/09/20 01:52:38;;;;;;;5.20;1.67;;;17.70;99.90;;;;;;6189347;23;20198;-90
2023/09/20 01:55:07;;;;;;;3.37;1.47;;;17.70;99.90;;;;;;6188620;23;20529;-92
2023/09/20 01:57:34;;;;;;;5.90;1.20;;;17.60;99.90;;;;;;6212099;23;20194;-90
2023/09/20 01:59:59;;;;;;;1.87;1.00;;;17.70;99.90;;;;;;6159439;23;20220;-89
2023/09/20 02:02:26;;;;;;;6.60;1.53;;;17.80;99.90;;;;;;6160096;23;20276;-91
2023/09/20 02:04:52;;;;;;;9.20;2.40;;;17.80;99.90;;;;;;6189778;23;20232;-92
2023/09/20 02:07:17;;;;;;;5.60;1.37;;;17.90;99.90;;;;;;6163670;23;20639;-90
2023/09/20 02:09:44;;;;;;;1.67;0.70;;;17.90;99.90;;;;;;6188230;23;20198;-90
2023/09/20 02:12:10;;;;;;;2.03;1.03;;;17.90;99.90;;;;;;6162345;23;20206;-89
2023/09/20 02:14:37;;;;;;;9.20;0.80;;;18.00;99.90;;;;;;6159778;23;20566;-90
2023/09/20 02:17:05;;;;;;;2.10;1.07;;;18.00;99.90;;;;;;6160262;23;20162;-89
2023/09/20 02:19:30;;;;;;;7.00;1.17;;;18.00;99.90;;;;;;6189569;23;20651;-91
2023/09/20 02:21:56;;;;;;;1.37;0.80;;;18.10;99.90;;;;;;6163441;23;20267;-90
2023/09/20 02:24:23;;;;;;;10.63;2.73;;;18.10;99.90;;;;;;6163212;23;20199;-90
2023/09/20 02:26:48;;;;;;;3.10;1.30;;;18.10;99.90;;;;;;6184571;23;20247;-90
2023/09/20 02:29:14;;;;;;;6.60;1.83;;;18.10;99.90;;;;;;6159777;23;20193;-91
2023/09/20 02:31:40;;;;;;;8.03;1.90;;;18.20;99.90;;;;;;6189181;23;20629;-91
2023/09/20 02:34:06;;;;;;;7.40;1.87;;;18.10;99.90;;;;;;6188152;23;20285;-90
2023/09/20 02:36:31;;;;;;;7.47;2.03;;;18.10;99.90;;;;;;6163635;23;20194;-90
2023/09/20 02:38:59;;;;;;;7.03;1.33;;;18.10;99.90;;;;;;6163853;23;20217;-90
2023/09/20 02:41:24;;;;;;;6.90;1.63;;;18.10;99.90;;;;;;6188737;23;20190;-91
2023/09/20 02:43:52;;;;;;;3.43;1.00;;;18.10;99.90;;;;;;6189280;23;20169;-91
2023/09/20 02:46:20;;;;;;;6.87;1.23;;;18.10;99.90;;;;;;6163744;23;20204;-90
2023/09/20 02:48:47;;;;;;;2.30;1.30;;;18.10;99.90;;;;;;6188682;23;20542;-92
2023/09/20 02:51:13;;;;;;;2.77;1.37;;;18.20;99.90;;;;;;6163808;23;20205;-89
2023/09/20 02:53:39;;;;;;;6.30;1.30;;;18.20;99.90;;;;;;6187778;23;20190;-91
2023/09/20 02:56:05;;;;;;;1.23;0.70;;;18.20;99.90;;;;;;6187838;23;20196;-92
2023/09/20 02:58:31;;;;;;;1.60;1.03;;;18.20;99.90;;;;;;6186303;23;20583;-90
2023/09/20 03:00:57;;;;;;;2.37;0.93;;;18.30;99.90;;;;;;6158983;23;20198;-91
2023/09/20 03:03:23;;;;;;;3.30;1.10;;;18.30;99.90;;;;;;6185193;23;20189;-91
2023/09/20 03:05:49;;;;;;;10.30;1.40;;;18.30;99.90;;;;;;6163334;23;20269;-91
2023/09/20 03:08:16;;;;;;;10.30;2.03;;;18.30;99.90;;;;;;6187965;23;20189;-91
2023/09/20 03:10:42;;;;;;;4.80;1.13;;;18.30;99.90;;;;;;6163950;23;20186;-91
2023/09/20 03:13:16;;;;;;;11.80;1.30;;;18.30;99.90;;;;;;6187867;23;20201;-92
2023/09/20 03:15:45;;;;;;;1.97;0.77;;;18.30;99.90;;;;;;6214102;23;20247;-91
2023/09/20 03:18:13;;;;;;;2.73;1.20;;;18.30;99.90;;;;;;6188364;23;20265;-92
2023/09/20 03:20:43;;;;;;;1.33;0.93;;;18.30;99.90;;;;;;6188029;23;20190;-94
2023/09/20 03:23:09;;;;;;;5.43;1.37;;;18.30;99.90;;;;;;6188554;23;20162;-92
2023/09/20 03:25:37;;;;;;;4.83;1.00;;;18.30;99.90;;;;;;6188932;23;20158;-94
2023/09/20 03:28:04;;;;;;;3.07;0.87;;;18.30;99.90;;;;;;6161654;23;20244;-93
2023/09/20 03:30:31;;;;;;;1.00;0.80;;;18.30;99.90;;;;;;6184548;23;20210;-92
2023/09/20 03:32:58;;;;;;;2.63;1.20;;;18.30;99.90;;;;;;6186040;23;20217;-93
2023/09/20 03:35:24;;;;;;;6.83;1.20;;;18.30;99.90;;;;;;6188509;23;20224;-94
2023/09/20 03:37:50;;;;;;;7.90;1.40;;;18.40;99.90;;;;;;6214129;23;20216;-92
2023/09/20 03:40:17;;;;;;;8.37;1.43;;;18.30;99.90;;;;;;6187800;23;20194;-91
2023/09/20 03:42:48;;;;;;;4.00;1.20;;;18.30;99.90;;;;;;6163264;23;20194;-93
2023/09/20 03:45:15;;;;;;;15.30;2.63;;;18.30;99.90;;;;;;6213288;23;20193;-95
2023/09/20 03:47:57;;;;;;;6.03;1.80;;;18.20;99.90;;;;;;6188023;23;20635;-92
2023/09/20 03:50:25;;;;;;;9.63;1.53;;;18.20;99.90;;;;;;6189512;23;20534;-93
2023/09/20 03:52:52;;;;;;;4.37;1.87;;;18.20;99.90;;;;;;6188238;23;20536;-92
2023/09/20 03:55:19;;;;;;;6.13;1.33;;;18.20;99.90;;;;;;6212862;23;20209;-92
2023/09/20 03:57:45;;;;;;;6.63;1.60;;;18.20;99.90;;;;;;6211628;23;20198;-92
2023/09/20 04:00:11;;;;;;;5.80;1.37;;;18.10;99.90;;;;;;6184421;23;20212;-90
2023/09/20 04:02:38;;;;;;;1.80;1.33;;;18.10;99.90;;;;;;6213617;23;20196;-93
2023/09/20 04:05:13;;;;;;;6.17;1.90;;;18.00;99.90;;;;;;6188522;23;20158;-93
2023/09/20 04:07:40;;;;;;;6.67;2.00;;;18.00;99.90;;;;;;6167284;23;20240;-93
2023/09/20 04:10:07;;;;;;;5.73;2.17;;;17.90;99.90;;;;;;6187651;23;20573;-92
2023/09/20 04:12:34;;;;;;;5.00;1.57;;;17.80;99.90;;;;;;6187460;23;20276;-94
2023/09/20 04:15:00;;;;;;;2.23;1.73;;;17.80;99.90;;;;;;6188119;23;20189;-93
2023/09/20 04:17:25;;;;;;;1.43;1.27;;;17.70;99.90;;;;;;6187461;23;20201;-93
2023/09/20 04:19:53;;;;;;;2.47;1.80;;;17.70;99.90;;;;;;6163677;23;20168;-91
2023/09/20 04:22:19;;;;;;;5.67;2.77;;;17.60;99.90;;;;;;6187751;23;20194;-93
2023/09/20 04:24:44;;;;;;;2.97;2.10;;;17.60;99.90;;;;;;6188304;23;20726;-92
2023/09/20 04:27:10;;;;;;;6.77;1.93;;;17.60;99.90;;;;;;6164299;23;20234;-92
2023/09/20 04:29:36;;;;;;;4.93;1.77;;;17.50;99.90;;;;;;6189549;23;20206;-92
2023/09/20 04:32:02;;;;;;;1.87;1.50;;;17.50;99.90;;;;;;6163774;23;20655;-92
2023/09/20 04:34:29;;;;;;;4.40;2.10;;;17.50;99.90;;;;;;6189256;23;20193;-93
2023/09/20 04:36:56;;;;;;;4.53;2.20;;;17.50;99.90;;;;;;6162983;23;20205;-92
2023/09/20 04:39:25;;;;;;;4.43;2.40;;;17.50;99.90;;;;;;6163317;23;20262;-93
2023/09/20 04:41:53;;;;;;;4.77;2.40;;;17.40;99.90;;;;;;6212818;23;20251;-93
2023/09/20 04:44:20;;;;;;;7.03;1.80;;;17.40;99.90;;;;;;6188370;23;20194;-94
2023/09/20 04:46:47;;;;;;;8.20;2.23;;;17.40;99.90;;;;;;6188922;23;20529;-93
2023/09/20 04:49:14;;;;;;;4.63;2.13;;;17.30;99.90;;;;;;6188219;23;20204;-92
2023/09/20 04:51:42;;;;;;;5.47;2.37;;;17.30;99.90;;;;;;6214329;23;20220;-93
2023/09/20 04:54:08;;;;;;;1.90;1.47;;;17.40;99.90;;;;;;6190692;23;20214;-94
2023/09/20 04:56:36;;;;;;;4.23;2.40;;;17.40;99.90;;;;;;6215427;23;20255;-93
2023/09/20 04:59:04;;;;;;;10.23;2.70;;;17.30;99.90;;;;;;6186809;23;20162;-92
2023/09/20 05:01:31;;;;;;;4.80;2.30;;;17.30;99.90;;;;;;6187029;23;20158;-94
2023/09/20 05:03:57;;;;;;;5.53;2.03;;;17.30;99.90;;;;;;6210885;23;20204;-94
2023/09/20 05:06:23;;;;;;;2.00;1.53;;;17.30;99.90;;;;;;6189260;23;20198;-93
2023/09/20 05:08:50;;;;;;;3.00;2.00;;;17.30;99.90;;;;;;6164647;23;20251;-91
2023/09/20 05:11:18;;;;;;;2.53;1.90;;;17.30;99.90;;;;;;6165586;23;20189;-93
2023/09/20 05:13:45;;;;;;;3.30;3.00;;;17.30;99.90;;;;;;6215149;23;20224;-93
2023/09/20 05:16:11;;;;;;;8.03;2.70;;;17.30;99.90;;;;;;6189316;23;20218;-91
2023/09/20 05:18:37;;;;;;;1.70;1.53;;;17.30;99.90;;;;;;6214508;23;20646;-92
2023/09/20 05:21:03;;;;;;;2.87;1.60;;;17.30;99.90;;;;;;6213626;23;20194;-92
2023/09/20 05:23:29;;;;;;;2.87;2.43;;;17.30;99.90;;;;;;6186236;23;20198;-92
2023/09/20 05:25:56;;;;;;;6.00;2.27;;;17.30;99.90;;;;;;6211138;23;20158;-91
2023/09/20 05:28:22;;;;;;;3.60;1.93;;;17.30;99.90;;;;;;6188912;23;20205;-92
2023/09/20 05:30:48;;;;;;;4.17;1.50;;;17.30;99.90;;;;;;6189675;23;20201;-94
2023/09/20 05:33:15;;;;;;;4.80;1.73;;;17.30;99.90;;;;;;6211020;23;20198;-92
2023/09/20 05:35:41;;;;;;;3.10;2.07;;;17.30;99.90;;;;;;6186084;23;20698;-92
2023/09/20 05:38:07;;;;;;;2.53;2.33;;;17.30;99.90;;;;;;6190215;23;20173;-92
2023/09/20 05:40:34;;;;;;;6.53;1.90;;;17.30;99.90;;;;;;6166476;23;20151;-92
2023/09/20 05:43:03;;;;;;;13.50;2.50;;;17.30;99.90;;;;;;6164593;23;20272;-91
2023/09/20 05:45:30;;;;;;;3.10;2.70;;;17.30;99.90;;;;;;6214864;23;20225;-93
2023/09/20 05:47:58;;;;;;;8.57;2.13;;;17.40;99.90;;;;;;6215578;23;20335;-92
2023/09/20 05:50:33;;;;;;;2.00;1.57;;;17.40;99.90;;;;;;6166185;23;20205;-90
2023/09/20 05:53:07;;;;;;;4.23;2.43;;;17.40;99.90;;;;;;6214913;23;20235;-92
2023/09/20 05:55:44;;;;;;;4.07;2.27;;;17.40;99.90;;;;;;6215471;23;20167;-90
2023/09/20 05:58:12;;;;;;;4.33;1.97;;;17.40;99.90;;;;;;6211339;23;20208;-91
2023/09/20 06:00:38;;;;;;;3.80;1.60;;;17.40;99.90;;;;;;6185569;23;20362;-90
2023/09/20 06:03:04;;;;;;;4.47;1.73;;;17.40;99.90;;;;;;6161828;23;20194;-92
2023/09/20 06:05:37;;;;;;;6.53;2.90;;;17.40;99.90;;;;;;6190221;23;20228;-92
2023/09/20 06:08:04;;;;;;;4.97;2.03;;;17.40;99.90;;;;;;6166397;23;20162;-92
2023/09/20 06:10:29;;;;;;;7.33;2.10;;;17.40;99.90;;;;;;6215093;23;20182;-91
2023/09/20 06:12:55;;;;;;;5.33;2.53;;;17.40;99.90;;;;;;6164435;23;20194;-90
2023/09/20 06:15:21;;;;;;;2.90;1.70;;;17.50;99.90;;;;;;6164070;23;20208;-88
2023/09/20 06:17:47;;;;;;;9.77;2.97;;;17.50;99.90;;;;;;6164784;23;20535;-91
2023/09/20 06:20:19;;;;;;;3.37;1.83;;;17.50;99.90;;;;;;6189401;23;20189;-89
2023/09/20 06:23:03;;;;;;;1.90;1.70;;;17.50;99.90;;;;;;6191201;23;20143;-95
2023/09/20 06:25:29;;;;;;;6.87;1.67;;;17.60;99.90;;;;;;6240600;23;20174;-91
2023/09/20 06:27:55;;;;;;;2.40;1.90;;;17.60;99.90;;;;;;6189409;23;20221;-92
2023/09/20 06:30:22;;;;;;;5.37;1.90;;;17.60;99.90;;;;;;6189315;23;20210;-91
2023/09/20 06:32:48;;;;;;;3.00;2.20;;;17.60;99.90;;;;;;6190152;23;20197;-93
2023/09/20 06:35:21;;;;;;;3.37;1.87;;;17.70;99.90;;;;;;6163301;23;20161;-89
2023/09/20 06:37:47;;;;;;;2.83;1.70;;;17.60;99.90;;;;;;6167157;23;20770;-88
2023/09/20 06:40:23;;;;;;;3.57;1.57;;;17.70;99.90;;;;;;6189183;23;20655;-93
2023/09/20 06:42:52;;;;;;;8.63;2.07;;;17.70;99.90;;;;;;6213936;23;20194;-91
2023/09/20 06:45:19;;;;;;;5.13;1.60;;;17.70;99.90;;;;;;6165488;23;20654;-92
2023/09/20 06:47:45;;;;;;;1.53;1.43;;;17.70;99.90;;;;;;6188492;23;20190;-91
2023/09/20 06:50:15;;;;;;;2.73;1.70;;;17.80;99.90;;;;;;6188773;23;20269;-92
2023/09/20 06:52:42;;;;;;;2.27;1.53;;;17.80;99.90;;;;;;6189075;23;20357;-91
2023/09/20 06:55:16;;;;;;;3.67;1.97;;;17.90;99.90;;;;;;6164558;23;20226;-90
2023/09/20 06:57:42;;;;;;;3.77;1.40;;;18.00;99.90;;;;;;6187383;23;20197;-89
2023/09/20 07:03:04;;;;;;;3.80;1.43;;;18.00;99.90;;;;;;6195843;23;20198;-88
2023/09/20 07:05:30;;;;;;;8.10;1.90;;;18.00;99.90;;;;;;6162858;23;20216;-86
2023/09/20 07:07:58;;;;;;;2.27;1.47;;;18.10;99.90;;;;;;6188405;23;20158;-86
2023/09/20 07:10:24;;;;;;;6.43;2.23;;;18.30;99.90;;;;;;6188412;23;20186;-87
2023/09/20 07:12:54;;;;;;;4.30;1.70;;;18.50;99.90;;;;;;6162842;23;20528;-88
2023/09/20 07:15:20;;;;;;;4.87;1.73;;;18.70;99.90;;;;;;6213926;23;20194;-90
2023/09/20 07:17:58;;;;;;;1.93;1.17;;;18.80;99.90;;;;;;6187791;23;20189;-87
2023/09/20 07:20:25;;;;;;;2.93;1.13;;;18.90;99.90;;;;;;6189862;23;20189;-88
2023/09/20 07:22:51;;;;;;;2.93;1.80;;;18.90;99.90;;;;;;6213291;23;20216;-87
2023/09/20 07:25:21;;;;;;;1.13;1.03;;;18.80;99.90;;;;;;6163486;23;20236;-89
2023/09/20 07:27:48;;;;;;;2.33;1.23;;;18.70;99.90;;;;;;6188841;23;20201;-89
2023/09/20 07:30:23;;;;;;;5.33;1.23;;;18.60;99.90;;;;;;6212251;23;20210;-88
2023/09/20 07:32:50;;;;;;;6.93;1.67;;;18.50;99.90;;;;;;6189752;23;20208;-87
2023/09/20 07:35:25;;;;;;;6.03;1.90;;;18.50;99.90;;;;;;6187708;23;20922;-88
2023/09/20 07:37:58;;;;;;;1.77;1.33;;;18.50;99.90;;;;;;6189860;23;20240;-87
2023/09/20 07:40:31;;;;;;;3.37;1.13;;;18.60;99.90;;;;;;6212532;23;20178;-85
2023/09/20 07:43:05;;;;;;;3.70;1.90;;;18.70;99.90;;;;;;6212660;23;20198;-89
2023/09/20 07:45:39;;;;;;;4.73;1.63;;;18.60;99.90;;;;;;6188924;23;20202;-87
2023/09/20 07:48:13;;;;;;;2.00;1.43;;;18.50;99.90;;;;;;6212747;23;20201;-89
2023/09/20 07:50:50;;;;;;;3.20;1.33;;;18.60;99.90;;;;;;6212406;23;20337;-89
2023/09/20 07:53:18;;;;;;;4.70;1.70;;;18.60;99.90;;;;;;6212234;23;20214;-88
2023/09/20 07:55:55;;;;;;;1.90;1.40;;;18.60;99.90;;;;;;6212589;23;20162;-89
2023/09/20 07:58:21;;;;;;;1.80;1.33;;;18.60;99.90;;;;;;6187123;23;20182;-89
2023/09/20 08:00:49;;;;;;;9.17;2.07;;;18.60;99.90;;;;;;6182939;23;20233;-89
2023/09/20 08:03:15;;;;;;;4.90;1.40;;;18.60;99.90;;;;;;6162769;23;20200;-89
2023/09/20 08:05:44;;;;;;;3.67;1.87;;;18.60;99.90;;;;;;6187171;23;20272;-89
2023/09/20 08:08:10;;;;;;;5.43;1.80;;;18.60;99.90;;;;;;6187770;23;20162;-89
2023/09/20 08:10:38;;;;;;;3.03;1.60;;;18.60;99.90;;;;;;6187945;23;20189;-89
2023/09/20 08:13:06;;;;;;;2.57;1.63;;;18.60;99.90;;;;;;6211808;23;20190;-88
2023/09/20 08:15:42;;;;;;;7.97;2.10;;;18.60;99.90;;;;;;6186370;23;20210;-88
2023/09/20 08:20:53;;;;;;;2.00;1.50;;;18.60;99.90;;;;;;6212357;23;20186;-86
2023/09/20 09:01:50;;;;;;;3.70;2.13;;;23.10;99.90;;;;;;6189548;23;20143;-88
2023/09/20 09:04:18;;;;;;;2.22;1.88;;;23.30;99.90;;;;;;6213518;23;20194;-89
2023/09/20 09:06:44;;;;;;;2.08;1.67;;;22.50;99.90;;;;;;6189036;23;20201;-88
2023/09/20 09:09:10;;;;;;;2.90;1.80;;;21.70;99.90;;;;;;6214964;23;20256;-87
2023/09/20 09:11:37;;;;;;;2.95;2.13;;;21.30;99.90;;;;;;6164372;23;20190;-87
2023/09/20 09:14:03;;;;;;;2.85;1.40;;;21.10;99.90;;;;;;6188715;23;20158;-88
2023/09/20 09:16:33;;;;;;;4.73;1.67;;;21.00;99.90;;;;;;6165852;23;20162;-91
2023/09/20 09:19:00;;;;;;;3.05;2.25;;;21.00;99.90;;;;;;6214608;23;20205;-86
2023/09/20 09:21:30;;;;;;;4.25;2.70;;;21.10;99.90;;;;;;6189551;23;20205;-87
2023/09/20 09:23:57;;;;;;;6.57;1.90;;;21.60;99.90;;;;;;6214242;23;20639;-90
2023/09/20 09:26:25;;;;;;;2.70;1.95;;;21.80;99.90;;;;;;6189072;23;20194;-86
2023/09/20 09:28:51;;;;;;;7.10;2.63;;;21.90;99.90;;;;;;6189747;23;20170;-88
2023/09/20 09:31:17;;;;;;;4.15;2.25;;;21.80;99.90;;;;;;6189108;23;20267;-86
2023/09/20 09:33:43;;;;;;;3.08;2.08;;;22.40;99.90;;;;;;6163747;23;20210;-87
2023/09/20 09:36:10;;;;;;;5.00;1.95;;;22.70;99.90;;;;;;6189305;23;20189;-88
2023/09/20 09:38:39;;;;;;;1.88;1.67;;;22.90;99.90;;;;;;6165467;23;20212;-88
2023/09/20 09:41:08;;;;;;;3.40;1.65;;;22.40;99.90;;;;;;6166078;23;20304;-87
2023/09/20 09:43:34;;;;;;;5.68;1.90;;;21.70;99.90;;;;;;6215273;23;20309;-88
2023/09/20 09:46:10;;;;;;;2.20;1.42;;;21.10;99.90;;;;;;6164598;23;20650;-87
2023/09/20 09:48:37;;;;;;;3.63;2.85;;;20.60;99.90;;;;;;6213953;23;20201;-86
2023/09/20 09:51:06;;;;;;;2.53;1.52;;;20.70;99.90;;;;;;6214337;23;20194;-87
2023/09/20 09:53:35;;;;;;;4.33;1.60;;;20.50;99.90;;;;;;6187913;23;20202;-86
2023/09/20 09:56:05;;;;;;;2.17;1.25;;;20.30;99.90;;;;;;6188558;23;20194;-86
2023/09/20 09:58:32;;;;;;;2.43;1.77;;;20.20;99.90;;;;;;6210099;23;20165;-86
2023/09/20 10:00:58;;;;;;;3.63;2.00;;;20.00;99.90;;;;;;6235241;23;20221;-91
2023/09/20 10:03:29;;;;;;;1.57;1.47;;;19.90;99.90;;;;;;6210573;23;20205;-89
2023/09/20 10:06:14;;;;;;;2.63;2.43;;;19.80;99.90;;;;;;6213440;23;20189;-91
2023/09/20 10:08:43;;;;;;;2.23;2.03;;;19.60;99.90;;;;;;6214370;23;20194;-90
2023/09/20 10:11:09;;;;;;;3.53;1.90;;;19.40;99.90;;;;;;6213855;23;20154;-90
2023/09/20 10:13:40;;;;;;;1.57;1.47;;;19.40;99.90;;;;;;6164836;23;20162;-88
2023/09/20 10:16:10;;;;;;;2.00;1.83;;;19.40;99.90;;;;;;6239453;23;20726;-91
2023/09/20 10:18:51;;;;;;;4.60;1.90;;;19.40;99.90;;;;;;6214101;23;20236;-89
2023/09/20 10:21:24;;;;;;;4.17;1.80;;;19.40;99.90;;;;;;6239209;23;20221;-88
2023/09/20 10:23:57;;;;;;;2.27;1.77;;;19.40;99.90;;;;;;6189719;23;20550;-90
2023/09/20 10:26:23;;;;;;;2.57;1.97;;;19.30;99.90;;;;;;6213965;23;20182;-88
2023/09/20 10:29:12;;;;;;;3.53;2.27;;;19.30;99.90;;;;;;6189809;23;20154;-90
2023/09/20 10:31:39;;;;;;;2.60;1.80;;;19.40;99.90;;;;;;6218590;23;20193;-92
2023/09/20 10:34:05;;;;;;;3.30;2.50;;;19.30;99.90;;;;;;6211318;23;20651;-91
2023/09/20 10:36:32;;;;;;;2.67;2.20;;;19.20;99.90;;;;;;6187429;23;20277;-92
2023/09/20 10:39:17;;;;;;;3.50;2.40;;;19.30;99.90;;;;;;6162124;23;20234;-89
2023/09/20 10:41:44;;;;;;;2.93;2.27;;;19.30;99.90;;;;;;6237266;23;20204;-88
2023/09/20 10:44:29;;;;;;;2.40;2.20;;;19.30;99.90;;;;;;6212350;23;20169;-87
2023/09/20 10:46:59;;;;;;;2.63;2.40;;;19.20;99.90;;;;;;6212788;23;20277;-89
2023/09/20 10:49:48;;;;;;;3.40;2.00;;;19.20;99.90;;;;;;6188150;23;20202;-91
2023/09/20 10:52:34;;;;;;;1.50;1.40;;;19.30;99.90;;;;;;6190029;23;20218;-90
2023/09/20 10:55:24;;;;;;;2.27;1.73;;;19.20;99.90;;;;;;6212163;23;20194;-90
2023/09/20 10:57:50;;;;;;;1.77;1.67;;;19.20;99.90;;;;;;6235361;23;20205;-89
2023/09/20 11:00:30;;;;;;;3.87;1.90;;;19.10;99.90;;;;;;6182295;23;20635;-88
2023/09/20 11:02:56;;;;;;;2.80;2.23;;;19.20;99.90;;;;;;6210695;23;20193;-88
2023/09/20 11:05:28;;;;;;;3.87;1.93;;;19.20;99.90;;;;;;6211747;23;20197;-88
2023/09/20 11:07:55;;;;;;;4.47;2.37;;;19.20;99.90;;;;;;6213620;23;20568;-88
2023/09/20 11:10:21;;;;;;;2.97;2.40;;;19.10;99.90;;;;;;6186206;23;20202;-88
2023/09/20 11:12:48;;;;;;;3.67;2.40;;;19.10;99.90;;;;;;6187681;23;20221;-90
2023/09/20 11:15:14;;;;;;;2.47;1.90;;;19.00;99.90;;;;;;6163078;23;20197;-91
2023/09/20 11:17:40;;;;;;;3.60;2.50;;;19.10;99.90;;;;;;6188213;23;20190;-90
2023/09/20 11:20:07;;;;;;;2.37;2.17;;;19.10;99.90;;;;;;6211420;23;20165;-89
2023/09/20 11:22:34;;;;;;;6.60;2.60;;;19.20;99.90;;;;;;6235876;23;20158;-90
2023/09/20 11:25:04;;;;;;;7.37;3.07;;;19.10;99.90;;;;;;6187671;23;20205;-89
2023/09/20 11:27:34;;;;;;;3.23;1.97;;;19.10;99.90;;;;;;6188658;23;20276;-90
2023/09/20 11:30:08;;;;;;;10.60;2.40;;;19.20;99.90;;;;;;6164581;23;20209;-88
2023/09/20 11:32:36;;;;;;;2.47;2.23;;;19.20;99.90;;;;;;6211978;23;20197;-89
2023/09/20 11:35:02;;;;;;;2.63;1.90;;;19.20;99.90;;;;;;6187673;23;20265;-88
2023/09/20 11:37:32;;;;;;;5.43;2.23;;;19.20;99.90;;;;;;6187750;23;20205;-88
2023/09/20 11:40:00;;;;;;;2.80;2.13;;;19.10;99.90;;;;;;6163992;23;20843;-88
2023/09/20 11:42:29;;;;;;;3.77;2.60;;;19.10;99.90;;;;;;6212352;23;20194;-89
2023/09/20 11:45:03;;;;;;;3.63;2.83;;;19.20;99.90;;;;;;6188024;23;20216;-92
2023/09/20 11:47:34;;;;;;;2.20;2.00;;;19.20;99.90;;;;;;6212655;23;20293;-89
2023/09/20 11:50:00;;;;;;;2.30;1.80;;;19.30;99.90;;;;;;6211885;23;20194;-87
2023/09/20 11:52:27;;;;;;;1.53;1.43;;;19.20;99.90;;;;;;6186699;23;20204;-87
2023/09/20 11:54:58;;;;;;;3.77;2.10;;;19.20;99.90;;;;;;6187348;23;20194;-88
2023/09/20 11:57:25;;;;;;;2.73;2.13;;;19.30;99.90;;;;;;6161761;23;20198;-88
2023/09/20 11:59:53;;;;;;;5.10;1.50;;;19.40;99.90;;;;;;6207125;23;20197;-88
2023/09/20 12:02:19;;;;;;;2.40;2.10;;;19.40;99.90;;;;;;6207716;23;20273;-88
2023/09/20 12:04:47;;;;;;;2.90;2.33;;;19.40;99.90;;;;;;6163088;23;20190;-88
2023/09/20 12:07:13;;;;;;;4.40;2.53;;;19.50;99.90;;;;;;6187223;23;20198;-88
2023/09/20 12:09:39;;;;;;;4.47;2.70;;;19.40;99.90;;;;;;6186534;23;20206;-89
2023/09/20 12:12:06;;;;;;;3.47;2.17;;;19.40;99.90;;;;;;6187724;23;20208;-88
2023/09/20 12:14:37;;;;;;;3.63;2.70;;;19.40;99.90;;;;;;6212506;23;20190;-87
2023/09/20 12:17:04;;;;;;;3.53;2.60;;;19.40;99.90;;;;;;6213111;23;20162;-89
2023/09/20 12:19:30;;;;;;;3.50;2.53;;;19.50;99.90;;;;;;6188694;23;20176;-88
2023/09/20 12:21:56;;;;;;;3.37;2.60;;;19.30;99.90;;;;;;6213563;23;20551;-89
2023/09/20 12:24:24;;;;;;;3.80;2.67;;;19.30;99.90;;;;;;6162684;23;20302;-88
2023/09/20 12:26:51;;;;;;;5.60;2.70;;;19.30;99.90;;;;;;6187917;23;20185;-89
2023/09/20 12:29:17;;;;;;;2.23;1.77;;;19.30;99.90;;;;;;6162597;23;20202;-87
2023/09/20 12:31:47;;;;;;;3.77;2.63;;;19.30;99.90;;;;;;6188473;23;20189;-91
2023/09/20 12:34:13;;;;;;;3.33;2.63;;;19.30;99.90;;;;;;6164351;23;20198;-90
2023/09/20 12:36:39;;;;;;;2.63;2.17;;;19.30;99.90;;;;;;6187918;23;20206;-90
2023/09/20 12:39:07;;;;;;;3.50;2.17;;;19.30;99.90;;;;;;6162903;23;20192;-91
2023/09/20 12:41:37;;;;;;;2.47;2.13;;;19.30;99.90;;;;;;6164629;23;20264;-90
2023/09/20 12:44:06;;;;;;;2.83;2.50;;;19.30;99.90;;;;;;6164005;23;20191;-91
2023/09/20 12:46:32;;;;;;;3.37;2.10;;;19.20;99.90;;;;;;6189555;23;20163;-92
2023/09/20 12:48:58;;;;;;;3.10;2.37;;;19.20;99.90;;;;;;6188034;23;20675;-90
2023/09/20 12:51:25;;;;;;;2.30;1.77;;;19.20;99.90;;;;;;6162743;23;20226;-90
2023/09/20 12:53:51;;;;;;;3.67;2.50;;;19.20;99.90;;;;;;6212505;23;20224;-89
2023/09/20 12:56:17;;;;;;;6.73;2.80;;;19.10;99.90;;;;;;6187660;23;20240;-89
2023/09/20 12:58:43;;;;;;;3.57;2.20;;;19.10;99.90;;;;;;6184903;23;20158;-89
2023/09/20 13:01:10;;;;;;;6.27;2.23;;;19.00;99.90;;;;;;6182925;23;20620;-90
2023/09/20 13:03:38;;;;;;;5.60;2.50;;;19.00;99.90;;;;;;6209901;23;20244;-90
2023/09/20 13:06:08;;;;;;;2.50;1.70;;;19.00;99.90;;;;;;6188641;23;20296;-90
2023/09/20 13:08:34;;;;;;;2.03;1.77;;;19.00;99.90;;;;;;6188317;23;20190;-90
2023/09/20 13:11:00;;;;;;;2.33;2.13;;;19.10;99.90;;;;;;6188483;23;20190;-91
2023/09/20 13:13:26;;;;;;;3.27;1.63;;;19.20;99.90;;;;;;6190687;23;20162;-93
2023/09/20 13:15:52;;;;;;;1.90;1.80;;;19.20;99.90;;;;;;6164873;23;20615;-88
2023/09/20 13:18:18;;;;;;;7.07;2.30;;;19.30;99.90;;;;;;6188501;23;20232;-88
2023/09/20 13:20:44;;;;;;;2.17;1.97;;;19.30;99.90;;;;;;6238693;23;20197;-88
2023/09/20 13:23:10;;;;;;;3.40;1.97;;;19.40;99.90;;;;;;6164346;23;20157;-87
2023/09/20 13:25:39;;;;;;;2.67;1.63;;;19.40;99.90;;;;;;6215943;23;20164;-85
2023/09/20 13:28:08;;;;;;;1.80;1.70;;;19.50;99.90;;;;;;6215013;23;20198;-87
2023/09/20 13:30:35;;;;;;;2.20;1.90;;;19.50;99.90;;;;;;6164541;23;20208;-87
2023/09/20 13:33:01;;;;;;;1.10;1.00;;;19.50;99.90;;;;;;6189306;23;20212;-88
2023/09/20 13:35:27;;;;;;;4.67;3.33;;;19.60;99.90;;;;;;6164142;23;20197;-87